createdAt,value
2018-03-28T00:00:48.952Z,2.81
2018-03-28T00:01:48.930Z,2.83
2018-03-28T00:02:48.397Z,2.81
2018-03-28T00:03:48.640Z,2.72
2018-03-28T00:04:48.885Z,2.73
2018-03-28T00:05:48.609Z,2.69
2018-03-28T00:06:48.598Z,2.59
2018-03-28T00:07:48.315Z,2.72
2018-03-28T00:08:48.814Z,2.63
2018-03-28T00:09:48.537Z,2.59
2018-03-28T00:10:48.532Z,2.55
2018-03-28T00:11:48.776Z,2.47
2018-03-28T00:12:48.756Z,2.58
2018-03-28T00:13:48.748Z,2.48
2018-03-28T00:14:48.461Z,2.44
2018-03-28T00:15:48.443Z,2.48
2018-03-28T00:16:48.685Z,2.42
2018-03-28T00:17:48.668Z,2.38
2018-03-28T00:18:48.397Z,2.34
2018-03-28T00:19:48.378Z,2.4
2018-03-28T00:20:48.628Z,2.38
2018-03-28T00:21:48.464Z,2.34
2018-03-28T00:22:48.071Z,2.31
2018-03-28T00:23:48.321Z,2.36
2018-03-28T00:24:48.040Z,2.3
2018-03-28T00:25:48.538Z,2.36
2018-03-28T00:26:48.523Z,2.34
2018-03-28T00:27:48.510Z,2.31
2018-03-28T00:28:48.489Z,2.3
2018-03-28T00:29:47.958Z,2.27
2018-03-28T00:30:48.201Z,2.16
2018-03-28T00:31:48.190Z,2.12
2018-03-28T00:32:48.433Z,2.24
2018-03-28T00:33:48.150Z,2.18
2018-03-28T00:34:48.401Z,2.22
2018-03-28T00:35:48.380Z,2.22
2018-03-28T00:36:48.104Z,2.13
2018-03-28T00:37:48.091Z,2.16
2018-03-28T00:38:48.331Z,2.15
2018-03-28T00:39:47.792Z,2.18
2018-03-28T00:40:48.038Z,2.2
2018-03-28T00:41:48.027Z,2.13
2018-03-28T00:42:48.014Z,2.16
2018-03-28T00:43:47.989Z,2.16
2018-03-28T00:44:47.967Z,2.22
2018-03-28T00:45:47.956Z,2.2
2018-03-28T00:46:48.194Z,2.16
2018-03-28T00:47:47.921Z,2.24
2018-03-28T00:48:47.910Z,2.27
2018-03-28T00:49:48.154Z,2.27
2018-03-28T00:50:48.195Z,2.34
2018-03-28T00:51:47.856Z,2.29
2018-03-28T00:52:47.837Z,2.27
2018-03-28T00:53:48.147Z,2.33
2018-03-28T00:54:48.070Z,2.38
2018-03-28T00:55:48.052Z,2.36
2018-03-28T00:56:48.037Z,2.42
2018-03-28T00:57:48.026Z,2.3
2018-03-28T00:58:47.741Z,2.41
2018-03-28T00:59:47.982Z,2.27
2018-03-28T01:00:47.968Z,2.4
2018-03-28T01:01:47.951Z,2.4
2018-03-28T01:02:47.675Z,2.4
2018-03-28T01:03:47.661Z,2.4
2018-03-28T01:04:47.906Z,2.34
2018-03-28T01:05:47.884Z,2.41
2018-03-28T01:06:47.875Z,2.36
2018-03-28T01:07:47.849Z,2.47
2018-03-28T01:08:47.830Z,2.34
2018-03-28T01:09:47.562Z,2.3
2018-03-28T01:10:47.540Z,2.34
2018-03-28T01:11:47.524Z,2.3
2018-03-28T01:12:47.776Z,2.38
2018-03-28T01:13:47.492Z,2.3
2018-03-28T01:14:47.742Z,2.33
2018-03-28T01:15:47.459Z,2.29
2018-03-28T01:16:47.703Z,2.3
2018-03-28T01:17:47.430Z,2.22
2018-03-28T01:18:47.673Z,2.16
2018-03-28T01:19:47.648Z,2.16
2018-03-28T01:20:47.384Z,2.22
2018-03-28T01:21:47.618Z,2.15
2018-03-28T01:22:47.604Z,2.15
2018-03-28T01:23:47.324Z,2.11
2018-03-28T01:24:47.307Z,2.15
2018-03-28T01:25:47.551Z,2.16
2018-03-28T01:26:47.534Z,2.09
2018-03-28T01:27:47.526Z,2.12
2018-03-28T01:28:47.245Z,2.15
2018-03-28T01:29:47.231Z,2.16
2018-03-28T01:30:47.472Z,2.18
2018-03-28T01:31:47.197Z,2.05
2018-03-28T01:32:46.919Z,2.12
2018-03-28T01:33:47.163Z,2.11
2018-03-28T01:34:47.144Z,2.06
2018-03-28T01:35:46.869Z,2.16
2018-03-28T01:36:47.114Z,2.15
2018-03-28T01:37:47.352Z,2.18
2018-03-28T01:38:47.337Z,2.23
2018-03-28T01:39:47.319Z,2.24
2018-03-28T01:40:47.316Z,2.3
2018-03-28T01:41:47.282Z,2.3
2018-03-28T01:42:47.270Z,2.31
2018-03-28T01:43:47.000Z,2.31
2018-03-28T01:44:46.978Z,2.31
2018-03-28T01:45:47.226Z,2.49
2018-03-28T01:46:47.204Z,2.52
2018-03-28T01:47:47.191Z,2.51
2018-03-28T01:48:46.915Z,2.51
2018-03-28T01:49:46.907Z,2.6
2018-03-28T01:50:46.877Z,2.69
2018-03-28T01:51:47.123Z,2.59
2018-03-28T01:52:46.851Z,2.66
2018-03-28T01:53:47.087Z,2.69
2018-03-28T01:54:47.081Z,2.59
2018-03-28T01:55:46.538Z,2.69
2018-03-28T01:56:46.784Z,2.72
2018-03-28T01:57:47.027Z,2.66
2018-03-28T01:58:46.494Z,2.66
2018-03-28T01:59:46.988Z,2.8
2018-03-28T02:00:46.717Z,2.81
2018-03-28T02:01:46.957Z,2.83
2018-03-28T02:02:46.682Z,2.83
2018-03-28T02:03:46.925Z,2.85
2018-03-28T02:04:46.655Z,2.91
2018-03-28T02:05:46.633Z,2.95
2018-03-28T02:06:46.877Z,3.02
2018-03-28T02:07:46.605Z,2.96
2018-03-28T02:08:46.842Z,2.91
2018-03-28T02:09:46.828Z,3.06
2018-03-28T02:10:46.813Z,2.96
2018-03-28T02:11:46.798Z,2.93
2018-03-28T02:12:46.518Z,3.06
2018-03-28T02:13:46.508Z,3.14
2018-03-28T02:14:46.748Z,3.13
2018-03-28T02:15:46.469Z,3.09
2018-03-28T02:16:46.456Z,3.13
2018-03-28T02:17:46.708Z,3.13
2018-03-28T02:18:46.685Z,3.11
2018-03-28T02:19:46.406Z,3.17
2018-03-28T02:20:46.393Z,3.13
2018-03-28T02:21:46.632Z,3.14
2018-03-28T02:22:46.369Z,3.16
2018-03-28T02:23:46.654Z,3.14
2018-03-28T02:24:46.330Z,3.17
2018-03-28T02:25:46.566Z,3.21
2018-03-28T02:26:46.296Z,3.21
2018-03-28T02:27:46.279Z,3.2
2018-03-28T02:28:46.262Z,3.16
2018-03-28T02:29:46.254Z,3.24
2018-03-28T02:30:46.505Z,3.27
2018-03-28T02:31:46.213Z,3.23
2018-03-28T02:32:46.458Z,3.23
2018-03-28T02:33:46.502Z,3.21
2018-03-28T02:34:46.432Z,3.29
2018-03-28T02:35:46.148Z,3.3
2018-03-28T02:36:46.396Z,3.27
2018-03-28T02:37:46.127Z,3.32
2018-03-28T02:38:46.360Z,3.2
2018-03-28T02:39:46.091Z,3.19
2018-03-28T02:40:46.333Z,3.29
2018-03-28T02:41:46.315Z,3.24
2018-03-28T02:42:45.783Z,3.23
2018-03-28T02:43:46.282Z,3.21
2018-03-28T02:44:46.274Z,3.21
2018-03-28T02:45:46.262Z,3.27
2018-03-28T02:46:45.986Z,3.2
2018-03-28T02:47:46.240Z,3.23
2018-03-28T02:48:45.939Z,3.21
2018-03-28T02:49:45.941Z,3.26
2018-03-28T02:50:45.908Z,3.19
2018-03-28T02:51:45.907Z,3.19
2018-03-28T02:52:46.149Z,3.14
2018-03-28T02:53:45.864Z,3.16
2018-03-28T02:54:46.114Z,3.13
2018-03-28T02:55:45.838Z,3.14
2018-03-28T02:56:45.823Z,3.14
2018-03-28T02:57:46.065Z,3.16
2018-03-28T02:58:46.048Z,3.21
2018-03-28T02:59:46.033Z,3.23
2018-03-28T03:00:45.758Z,3.26
2018-03-28T03:01:45.737Z,3.21
2018-03-28T03:02:45.978Z,3.21
2018-03-28T03:03:45.968Z,3.29
2018-03-28T03:04:45.687Z,3.34
2018-03-28T03:05:45.960Z,3.3
2018-03-28T03:06:45.921Z,3.32
2018-03-28T03:07:45.383Z,3.32
2018-03-28T03:08:45.364Z,3.29
2018-03-28T03:09:45.864Z,3.35
2018-03-28T03:10:45.602Z,3.3
2018-03-28T03:11:45.578Z,3.34
2018-03-28T03:12:45.559Z,3.32
2018-03-28T03:13:45.920Z,3.39
2018-03-28T03:14:45.535Z,3.34
2018-03-28T03:15:45.515Z,3.34
2018-03-28T03:16:45.238Z,3.42
2018-03-28T03:17:45.225Z,3.43
2018-03-28T03:18:45.206Z,3.37
2018-03-28T03:19:45.446Z,3.35
2018-03-28T03:20:45.431Z,3.34
2018-03-28T03:21:45.159Z,3.35
2018-03-28T03:22:45.401Z,3.46
2018-03-28T03:23:45.390Z,3.39
2018-03-28T03:24:45.646Z,3.43
2018-03-28T03:25:45.624Z,3.45
2018-03-28T03:26:45.592Z,3.45
2018-03-28T03:27:45.578Z,3.39
2018-03-28T03:28:45.569Z,3.45
2018-03-28T03:29:45.030Z,3.43
2018-03-28T03:30:45.278Z,3.35
2018-03-28T03:31:45.533Z,3.46
2018-03-28T03:32:44.983Z,3.42
2018-03-28T03:33:45.483Z,3.45
2018-03-28T03:34:45.467Z,3.34
2018-03-28T03:35:45.189Z,3.37
2018-03-28T03:36:45.189Z,3.29
2018-03-28T03:37:45.421Z,3.32
2018-03-28T03:38:45.148Z,3.32
2018-03-28T03:39:45.387Z,3.27
2018-03-28T03:40:44.855Z,3.23
2018-03-28T03:41:45.354Z,3.32
2018-03-28T03:42:45.087Z,3.29
2018-03-28T03:43:45.065Z,3.21
2018-03-28T03:44:45.049Z,3.32
2018-03-28T03:45:45.293Z,3.35
2018-03-28T03:46:45.283Z,3.24
2018-03-28T03:47:45.005Z,3.21
2018-03-28T03:48:44.989Z,3.14
2018-03-28T03:49:45.229Z,3.23
2018-03-28T03:50:45.212Z,3.27
2018-03-28T03:51:44.964Z,3.19
2018-03-28T03:52:45.182Z,3.23
2018-03-28T03:53:45.167Z,3.2
2018-03-28T03:54:44.890Z,3.2
2018-03-28T03:55:44.620Z,3.23
2018-03-28T03:56:44.857Z,3.26
2018-03-28T03:57:45.104Z,3.23
2018-03-28T03:58:45.151Z,3.23
2018-03-28T03:59:44.814Z,3.24
2018-03-28T04:00:45.054Z,3.19
2018-03-28T04:01:45.038Z,3.2
2018-03-28T04:02:45.030Z,3.23
2018-03-28T04:03:45.005Z,3.23
2018-03-28T04:04:44.731Z,3.2
2018-03-28T04:05:44.727Z,3.26
2018-03-28T04:06:44.699Z,3.23
2018-03-28T04:07:44.681Z,3.2
2018-03-28T04:08:44.669Z,3.2
2018-03-28T04:09:44.393Z,3.2
2018-03-28T04:10:44.897Z,3.21
2018-03-28T04:11:44.876Z,3.2
2018-03-28T04:12:44.604Z,3.19
2018-03-28T04:13:44.587Z,3.23
2018-03-28T04:14:44.837Z,3.2
2018-03-28T04:15:44.561Z,3.17
2018-03-28T04:16:44.805Z,3.21
2018-03-28T04:17:44.528Z,3.16
2018-03-28T04:18:44.510Z,3.19
2018-03-28T04:19:44.752Z,3.13
2018-03-28T04:20:44.738Z,3.13
2018-03-28T04:21:44.206Z,3.14
2018-03-28T04:22:44.713Z,3.11
2018-03-28T04:23:44.684Z,3.14
2018-03-28T04:24:44.446Z,3.09
2018-03-28T04:25:44.659Z,3.08
2018-03-28T04:26:44.646Z,3.09
2018-03-28T04:27:44.364Z,3.09
2018-03-28T04:28:44.359Z,3.08
2018-03-28T04:29:44.591Z,3.09
2018-03-28T04:30:44.571Z,3.13
2018-03-28T04:31:44.308Z,3.11
2018-03-28T04:32:44.290Z,3.16
2018-03-28T04:33:44.523Z,3.19
2018-03-28T04:34:44.514Z,3.09
2018-03-28T04:35:44.256Z,3.14
2018-03-28T04:36:44.575Z,3.16
2018-03-28T04:37:44.205Z,3.17
2018-03-28T04:38:44.456Z,3.11
2018-03-28T04:39:44.171Z,3.06
2018-03-28T04:40:44.158Z,3.13
2018-03-28T04:41:43.880Z,3.17
2018-03-28T04:42:43.866Z,3.19
2018-03-28T04:43:44.464Z,3.17
2018-03-28T04:44:44.350Z,3.14
2018-03-28T04:45:44.334Z,3.17
2018-03-28T04:46:44.061Z,3.06
2018-03-28T04:47:44.304Z,3.2
2018-03-28T04:48:44.291Z,3.09
2018-03-28T04:49:44.013Z,3.16
2018-03-28T04:50:44.272Z,3.19
2018-03-28T04:51:43.720Z,3.08
2018-03-28T04:52:44.226Z,3.13
2018-03-28T04:53:44.223Z,3.05
2018-03-28T04:54:43.931Z,3.02
2018-03-28T04:55:43.941Z,3.16
2018-03-28T04:56:44.176Z,3.05
2018-03-28T04:57:43.883Z,3.05
2018-03-28T04:58:44.122Z,3.02
2018-03-28T04:59:43.858Z,3.02
2018-03-28T05:00:44.095Z,3.03
2018-03-28T05:01:44.079Z,3.02
2018-03-28T05:02:43.807Z,2.88
2018-03-28T05:03:43.783Z,2.99
2018-03-28T05:04:44.027Z,3.02
2018-03-28T05:05:43.498Z,2.99
2018-03-28T05:06:43.739Z,2.93
2018-03-28T05:07:43.983Z,2.91
2018-03-28T05:08:43.709Z,2.95
2018-03-28T05:09:43.955Z,2.87
2018-03-28T05:10:43.939Z,2.83
2018-03-28T05:11:43.401Z,2.81
2018-03-28T05:12:43.908Z,2.83
2018-03-28T05:13:43.628Z,2.9
2018-03-28T05:14:43.886Z,2.8
2018-03-28T05:15:44.045Z,2.85
2018-03-28T05:16:43.583Z,2.87
2018-03-28T05:17:43.823Z,2.83
2018-03-28T05:18:43.802Z,2.84
2018-03-28T05:19:43.791Z,2.85
2018-03-28T05:20:43.513Z,2.84
2018-03-28T05:21:43.776Z,2.85
2018-03-28T05:22:43.585Z,2.84
2018-03-28T05:23:43.466Z,2.93
2018-03-28T05:24:43.453Z,2.81
2018-03-28T05:25:43.173Z,2.83
2018-03-28T05:26:43.417Z,2.81
2018-03-28T05:27:43.654Z,2.83
2018-03-28T05:28:43.646Z,2.81
2018-03-28T05:29:43.364Z,2.9
2018-03-28T05:30:43.093Z,2.8
2018-03-28T05:31:43.081Z,2.87
2018-03-28T05:32:43.317Z,2.81
2018-03-28T05:33:43.042Z,2.87
2018-03-28T05:34:43.545Z,2.84
2018-03-28T05:35:43.527Z,2.88
2018-03-28T05:36:43.512Z,2.83
2018-03-28T05:37:43.577Z,2.85
2018-03-28T05:38:43.478Z,2.91
2018-03-28T05:39:43.211Z,3.02
2018-03-28T05:40:43.450Z,2.9
2018-03-28T05:41:43.434Z,2.84
2018-03-28T05:42:43.428Z,3.01
2018-03-28T05:43:43.408Z,2.99
2018-03-28T05:44:43.381Z,2.9
2018-03-28T05:45:43.370Z,3.01
2018-03-28T05:46:43.095Z,2.96
2018-03-28T05:47:43.341Z,2.93
2018-03-28T05:48:43.315Z,2.98
2018-03-28T05:49:43.396Z,3.02
2018-03-28T05:50:43.026Z,3.06
2018-03-28T05:51:42.750Z,3.08
2018-03-28T05:52:42.737Z,3.05
2018-03-28T05:53:42.979Z,3.02
2018-03-28T05:54:43.226Z,3.06
2018-03-28T05:55:43.211Z,3.09
2018-03-28T05:56:42.930Z,3.02
2018-03-28T05:57:42.911Z,3.14
2018-03-28T05:58:43.160Z,3.21
2018-03-28T05:59:42.626Z,3.11
2018-03-28T06:00:42.862Z,3.19
2018-03-28T06:01:42.846Z,3.13
2018-03-28T06:02:43.098Z,3.13
2018-03-28T06:03:43.081Z,3.11
2018-03-28T06:04:42.541Z,3.14
2018-03-28T06:05:42.839Z,3.11
2018-03-28T06:06:42.772Z,3.11
2018-03-28T06:07:43.059Z,3.09
2018-03-28T06:08:42.740Z,3.19
2018-03-28T06:09:42.723Z,3.17
2018-03-28T06:10:42.706Z,3.23
2018-03-28T06:11:42.693Z,3.2
2018-03-28T06:12:42.930Z,3.27
2018-03-28T06:13:42.658Z,3.26
2018-03-28T06:14:42.384Z,3.34
2018-03-28T06:15:42.882Z,3.37
2018-03-28T06:16:42.607Z,3.34
2018-03-28T06:17:42.852Z,3.42
2018-03-28T06:18:42.834Z,3.48
2018-03-28T06:19:42.560Z,3.4
2018-03-28T06:20:42.550Z,3.48
2018-03-28T06:21:42.530Z,3.4
2018-03-28T06:22:42.517Z,3.51
2018-03-28T06:23:42.762Z,3.46
2018-03-28T06:24:42.742Z,3.53
2018-03-28T06:25:42.464Z,3.49
2018-03-28T06:26:42.449Z,3.53
2018-03-28T06:27:42.436Z,3.58
2018-03-28T06:28:42.425Z,3.57
2018-03-28T06:29:42.407Z,3.56
2018-03-28T06:30:42.418Z,3.63
2018-03-28T06:31:42.629Z,3.6
2018-03-28T06:32:42.356Z,3.69
2018-03-28T06:33:42.607Z,3.72
2018-03-28T06:34:42.583Z,3.67
2018-03-28T06:35:42.572Z,3.72
2018-03-28T06:36:42.036Z,3.71
2018-03-28T06:37:42.021Z,3.74
2018-03-28T06:38:42.266Z,3.63
2018-03-28T06:39:42.513Z,3.66
2018-03-28T06:40:42.492Z,3.63
2018-03-28T06:41:42.478Z,3.58
2018-03-28T06:42:42.202Z,3.58
2018-03-28T06:43:42.191Z,3.69
2018-03-28T06:44:42.430Z,3.72
2018-03-28T06:45:41.893Z,3.67
2018-03-28T06:46:42.403Z,3.64
2018-03-28T06:47:42.122Z,3.74
2018-03-28T06:48:42.368Z,3.75
2018-03-28T06:49:42.355Z,3.69
2018-03-28T06:50:42.337Z,3.78
2018-03-28T06:51:42.323Z,3.76
2018-03-28T06:52:42.305Z,3.78
2018-03-28T06:53:42.059Z,3.79
2018-03-28T06:54:41.758Z,3.78
2018-03-28T06:55:41.996Z,3.86
2018-03-28T06:56:42.243Z,3.92
2018-03-28T06:57:42.225Z,3.9
2018-03-28T06:58:41.956Z,3.93
2018-03-28T06:59:42.308Z,3.97
2018-03-28T07:00:41.661Z,3.9
2018-03-28T07:01:42.170Z,3.93
2018-03-28T07:02:41.887Z,3.86
2018-03-28T07:03:41.876Z,3.89
2018-03-28T07:04:42.122Z,3.94
2018-03-28T07:05:41.842Z,3.97
2018-03-28T07:06:42.089Z,3.93
2018-03-28T07:07:41.816Z,3.97
2018-03-28T07:08:41.798Z,3.99
2018-03-28T07:09:42.045Z,3.97
2018-03-28T07:10:41.508Z,4
2018-03-28T07:11:41.759Z,3.92
2018-03-28T07:12:41.994Z,4.12
2018-03-28T07:13:41.977Z,4.1
2018-03-28T07:14:41.963Z,4.14
2018-03-28T07:15:41.952Z,4.1
2018-03-28T07:16:41.678Z,4.02
2018-03-28T07:17:41.658Z,3.99
2018-03-28T07:18:41.902Z,4.04
2018-03-28T07:19:41.633Z,3.97
2018-03-28T07:20:41.696Z,3.99
2018-03-28T07:21:41.874Z,4.04
2018-03-28T07:22:41.321Z,3.96
2018-03-28T07:23:41.567Z,4.1
2018-03-28T07:24:41.811Z,4.15
2018-03-28T07:25:41.800Z,4.18
2018-03-28T07:26:41.520Z,4.2
2018-03-28T07:27:41.767Z,4.18
2018-03-28T07:28:41.497Z,4.32
2018-03-28T07:29:41.738Z,4.33
2018-03-28T07:30:41.723Z,4.22
2018-03-28T07:31:41.703Z,4.28
2018-03-28T07:32:41.428Z,4.32
2018-03-28T07:33:41.672Z,4.42
2018-03-28T07:34:41.665Z,4.46
2018-03-28T07:35:41.645Z,4.51
2018-03-28T07:36:41.629Z,4.47
2018-03-28T07:37:41.363Z,4.46
2018-03-28T07:38:41.339Z,4.56
2018-03-28T07:39:41.324Z,4.53
2018-03-28T07:40:41.307Z,4.48
2018-03-28T07:41:41.347Z,4.44
2018-03-28T07:42:41.540Z,4.53
2018-03-28T07:43:41.263Z,4.57
2018-03-28T07:44:41.504Z,4.53
2018-03-28T07:45:41.492Z,4.53
2018-03-28T07:46:41.272Z,4.57
2018-03-28T07:47:41.200Z,4.6
2018-03-28T07:48:41.187Z,4.5
2018-03-28T07:49:41.436Z,4.54
2018-03-28T07:50:40.900Z,4.56
2018-03-28T07:51:41.538Z,4.57
2018-03-28T07:52:41.392Z,4.58
2018-03-28T07:53:41.120Z,4.58
2018-03-28T07:54:41.099Z,4.57
2018-03-28T07:55:41.094Z,4.65
2018-03-28T07:56:41.336Z,4.68
2018-03-28T07:57:41.322Z,4.71
2018-03-28T07:58:41.303Z,5
2018-03-28T07:59:41.290Z,5.02
2018-03-28T08:00:41.273Z,5.16
2018-03-28T08:01:40.996Z,5.26
2018-03-28T08:02:41.247Z,5.27
2018-03-28T08:03:40.707Z,5.54
2018-03-28T08:04:40.954Z,5.72
2018-03-28T08:05:40.683Z,5.91
2018-03-28T08:06:40.939Z,5.99
2018-03-28T08:07:40.919Z,6.1
2018-03-28T08:08:41.163Z,6.26
2018-03-28T08:09:41.231Z,6.39
2018-03-28T08:10:40.610Z,6.4
2018-03-28T08:11:41.122Z,6.46
2018-03-28T08:12:40.844Z,6.51
2018-03-28T08:13:41.084Z,6.46
2018-03-28T08:14:41.076Z,6.57
2018-03-28T08:15:40.805Z,6.7
2018-03-28T08:16:40.785Z,6.83
2018-03-28T08:17:40.776Z,6.86
2018-03-28T08:18:40.505Z,6.98
2018-03-28T08:19:40.748Z,6.93
2018-03-28T08:20:40.738Z,6.98
2018-03-28T08:21:40.722Z,6.9
2018-03-28T08:22:40.972Z,6.95
2018-03-28T08:23:40.701Z,6.83
2018-03-28T08:24:40.942Z,6.83
2018-03-28T08:25:40.994Z,6.68
2018-03-28T08:26:40.395Z,6.65
2018-03-28T08:27:40.644Z,6.72
2018-03-28T08:28:40.628Z,6.6
2018-03-28T08:29:40.620Z,6.68
2018-03-28T08:30:40.863Z,6.67
2018-03-28T08:31:40.848Z,6.58
2018-03-28T08:32:40.834Z,6.7
2018-03-28T08:33:40.307Z,6.64
2018-03-28T08:34:40.812Z,6.64
2018-03-28T08:35:40.802Z,6.55
2018-03-28T08:36:40.528Z,6.54
2018-03-28T08:37:40.509Z,6.36
2018-03-28T08:38:40.759Z,6.34
2018-03-28T08:39:40.227Z,6.31
2018-03-28T08:40:40.491Z,6.28
2018-03-28T08:41:40.200Z,6.25
2018-03-28T08:42:40.708Z,6.28
2018-03-28T08:43:40.435Z,6.1
2018-03-28T08:44:40.422Z,6.09
2018-03-28T08:45:40.720Z,6.14
2018-03-28T08:46:40.654Z,6.2
2018-03-28T08:47:40.396Z,6.17
2018-03-28T08:48:40.386Z,6.1
2018-03-28T08:49:40.613Z,6.09
2018-03-28T08:50:40.602Z,6.13
2018-03-28T08:51:40.587Z,6.07
2018-03-28T08:52:40.573Z,6.06
2018-03-28T08:53:40.303Z,6.06
2018-03-28T08:54:40.557Z,6.1
2018-03-28T08:55:40.338Z,6.17
2018-03-28T08:56:40.525Z,6.15
2018-03-28T08:57:40.511Z,6.25
2018-03-28T08:58:39.978Z,6.26
2018-03-28T08:59:40.229Z,6.37
2018-03-28T09:00:40.472Z,6.34
2018-03-28T09:01:40.456Z,6.44
2018-03-28T09:02:40.186Z,6.49
2018-03-28T09:03:39.910Z,6.52
2018-03-28T09:04:40.163Z,6.58
2018-03-28T09:05:40.147Z,6.51
2018-03-28T09:06:40.128Z,6.49
2018-03-28T09:07:40.376Z,6.46
2018-03-28T09:08:40.364Z,6.46
2018-03-28T09:09:40.351Z,6.46
2018-03-28T09:10:40.340Z,6.4
2018-03-28T09:11:40.272Z,6.4
2018-03-28T09:12:40.314Z,6.37
2018-03-28T09:13:40.040Z,6.43
2018-03-28T09:14:40.285Z,6.44
2018-03-28T09:15:40.271Z,6.46
2018-03-28T09:16:40.260Z,6.47
2018-03-28T09:17:40.250Z,6.44
2018-03-28T09:18:39.973Z,6.42
2018-03-28T09:19:39.961Z,6.24
2018-03-28T09:20:39.951Z,6.15
2018-03-28T09:21:40.202Z,6.1
2018-03-28T09:22:39.921Z,6.15
2018-03-28T09:23:40.169Z,6.18
2018-03-28T09:24:39.895Z,6.07
2018-03-28T09:25:40.150Z,6.06
2018-03-28T09:26:40.133Z,6.03
2018-03-28T09:27:40.116Z,6.14
2018-03-28T09:28:39.583Z,6.09
2018-03-28T09:29:40.089Z,6.06
2018-03-28T09:30:39.823Z,6.02
2018-03-28T09:31:39.544Z,6.07
2018-03-28T09:32:40.047Z,6.14
2018-03-28T09:33:39.779Z,6.09
2018-03-28T09:34:40.032Z,5.99
2018-03-28T09:35:39.749Z,6.13
2018-03-28T09:36:39.732Z,6.03
2018-03-28T09:37:39.985Z,6.1
2018-03-28T09:38:39.710Z,6.13
2018-03-28T09:39:39.695Z,6
2018-03-28T09:40:39.945Z,6.02
2018-03-28T09:41:39.668Z,5.99
2018-03-28T09:42:39.926Z,6
2018-03-28T09:43:39.649Z,6
2018-03-28T09:44:39.898Z,5.99
2018-03-28T09:45:39.620Z,5.98
2018-03-28T09:46:39.606Z,5.92
2018-03-28T09:47:39.850Z,5.98
2018-03-28T09:48:39.318Z,5.89
2018-03-28T09:49:39.565Z,5.91
2018-03-28T09:50:39.548Z,5.84
2018-03-28T09:51:39.534Z,5.85
2018-03-28T09:52:39.798Z,5.88
2018-03-28T09:53:39.773Z,5.89
2018-03-28T09:54:39.497Z,5.92
2018-03-28T09:55:39.483Z,5.95
2018-03-28T09:56:39.469Z,5.95
2018-03-28T09:57:39.461Z,5.87
2018-03-28T09:58:39.706Z,5.8
2018-03-28T09:59:39.690Z,5.92
2018-03-28T10:00:39.418Z,5.91
2018-03-28T10:01:39.658Z,5.95
2018-03-28T10:02:39.131Z,5.85
2018-03-28T10:03:39.632Z,5.87
2018-03-28T10:04:39.361Z,5.85
2018-03-28T10:05:39.608Z,5.88
2018-03-28T10:06:39.594Z,5.89
2018-03-28T10:07:39.068Z,5.99
2018-03-28T10:08:39.575Z,5.98
2018-03-28T10:09:39.555Z,5.96
2018-03-28T10:10:39.538Z,6.03
2018-03-28T10:11:39.533Z,6.03
2018-03-28T10:12:38.998Z,6.1
2018-03-28T10:13:39.247Z,6.13
2018-03-28T10:14:39.494Z,6.09
2018-03-28T10:15:39.491Z,6.15
2018-03-28T10:16:39.459Z,6.25
2018-03-28T10:17:39.447Z,6.26
2018-03-28T10:18:39.175Z,6.29
2018-03-28T10:19:39.161Z,6.37
2018-03-28T10:20:39.409Z,6.25
2018-03-28T10:21:39.395Z,6.42
2018-03-28T10:22:39.123Z,6.6
2018-03-28T10:23:39.109Z,6.6
2018-03-28T10:24:39.092Z,6.55
2018-03-28T10:25:39.338Z,6.7
2018-03-28T10:26:39.068Z,6.58
2018-03-28T10:27:39.316Z,6.67
2018-03-28T10:28:39.044Z,6.61
2018-03-28T10:29:39.033Z,6.6
2018-03-28T10:30:39.279Z,6.61
2018-03-28T10:31:39.007Z,6.55
2018-03-28T10:32:38.993Z,6.52
2018-03-28T10:33:38.981Z,6.49
2018-03-28T10:34:38.971Z,6.47
2018-03-28T10:35:38.951Z,6.58
2018-03-28T10:36:38.688Z,6.51
2018-03-28T10:37:38.929Z,6.55
2018-03-28T10:38:38.915Z,6.58
2018-03-28T10:39:39.162Z,6.55
2018-03-28T10:40:39.144Z,6.62
2018-03-28T10:41:38.873Z,6.54
2018-03-28T10:42:38.866Z,6.55
2018-03-28T10:43:38.599Z,6.55
2018-03-28T10:44:39.102Z,6.64
2018-03-28T10:45:39.082Z,6.64
2018-03-28T10:46:38.553Z,6.72
2018-03-28T10:47:38.803Z,6.73
2018-03-28T10:48:39.186Z,6.83
2018-03-28T10:49:38.772Z,6.83
2018-03-28T10:50:38.763Z,6.97
2018-03-28T10:51:39.008Z,6.97
2018-03-28T10:52:38.737Z,7.12
2018-03-28T10:53:38.723Z,7.04
2018-03-28T10:54:38.715Z,7.12
2018-03-28T10:55:38.956Z,7.15
2018-03-28T10:56:38.423Z,7.19
2018-03-28T10:57:38.937Z,7.18
2018-03-28T10:58:38.657Z,7.19
2018-03-28T10:59:38.906Z,7.27
2018-03-28T11:00:38.629Z,7.22
2018-03-28T11:01:38.940Z,7.19
2018-03-28T11:02:38.863Z,7.12
2018-03-28T11:03:38.856Z,7.11
2018-03-28T11:04:38.636Z,7.16
2018-03-28T11:05:38.570Z,7.09
2018-03-28T11:06:38.300Z,7.11
2018-03-28T11:07:38.602Z,7.26
2018-03-28T11:08:38.791Z,7.19
2018-03-28T11:09:38.520Z,7.23
2018-03-28T11:10:38.774Z,7.19
2018-03-28T11:11:38.760Z,7.23
2018-03-28T11:12:38.482Z,7.23
2018-03-28T11:13:38.469Z,7.16
2018-03-28T11:14:38.740Z,7.19
2018-03-28T11:15:38.702Z,7.22
2018-03-28T11:16:38.692Z,7.22
2018-03-28T11:17:38.159Z,7.23
2018-03-28T11:18:38.405Z,7.29
2018-03-28T11:19:38.136Z,7.36
2018-03-28T11:20:38.412Z,7.37
2018-03-28T11:21:38.634Z,7.4
2018-03-28T11:22:38.356Z,7.49
2018-03-28T11:23:38.350Z,7.48
2018-03-28T11:24:38.605Z,7.54
2018-03-28T11:25:38.324Z,7.59
2018-03-28T11:26:38.574Z,7.56
2018-03-28T11:27:38.293Z,7.59
2018-03-28T11:28:38.543Z,7.8
2018-03-28T11:29:38.530Z,7.77
2018-03-28T11:30:38.258Z,7.75
2018-03-28T11:31:38.508Z,7.73
2018-03-28T11:32:38.300Z,7.67
2018-03-28T11:33:38.487Z,7.64
2018-03-28T11:34:38.213Z,7.58
2018-03-28T11:35:38.467Z,7.58
2018-03-28T11:36:38.448Z,7.64
2018-03-28T11:37:38.437Z,7.63
2018-03-28T11:38:38.426Z,7.61
2018-03-28T11:39:38.153Z,7.7
2018-03-28T11:40:38.140Z,7.7
2018-03-28T11:41:37.868Z,7.78
2018-03-28T11:42:38.373Z,7.75
2018-03-28T11:43:38.376Z,7.86
2018-03-28T11:44:38.367Z,7.73
2018-03-28T11:45:38.340Z,7.73
2018-03-28T11:46:38.067Z,7.83
2018-03-28T11:47:38.434Z,7.77
2018-03-28T11:48:38.043Z,7.74
2018-03-28T11:49:38.293Z,7.83
2018-03-28T11:50:38.022Z,7.8
2018-03-28T11:51:38.269Z,7.77
2018-03-28T11:52:38.259Z,7.82
2018-03-28T11:53:38.242Z,7.78
2018-03-28T11:54:38.232Z,7.75
2018-03-28T11:55:37.961Z,7.78
2018-03-28T11:56:38.207Z,7.78
2018-03-28T11:57:37.947Z,7.75
2018-03-28T11:58:38.183Z,7.78
2018-03-28T11:59:37.914Z,7.73
2018-03-28T12:00:37.643Z,7.68
2018-03-28T12:01:37.889Z,7.7
2018-03-28T12:02:37.876Z,7.52
2018-03-28T12:03:38.133Z,7.61
2018-03-28T12:04:38.184Z,7.59
2018-03-28T12:05:37.840Z,7.63
2018-03-28T12:06:38.084Z,7.71
2018-03-28T12:07:38.074Z,7.73
2018-03-28T12:08:37.806Z,7.73
2018-03-28T12:09:37.794Z,7.78
2018-03-28T12:10:38.039Z,7.8
2018-03-28T12:11:37.511Z,7.75
2018-03-28T12:12:37.758Z,7.83
2018-03-28T12:13:38.004Z,7.77
2018-03-28T12:14:37.990Z,7.77
2018-03-28T12:15:37.981Z,7.82
2018-03-28T12:16:37.711Z,7.75
2018-03-28T12:17:37.957Z,7.74
2018-03-28T12:18:37.687Z,7.71
2018-03-28T12:19:37.417Z,7.74
2018-03-28T12:20:37.404Z,7.75
2018-03-28T12:21:37.656Z,7.73
2018-03-28T12:22:37.640Z,7.77
2018-03-28T12:23:37.889Z,7.88
2018-03-28T12:24:37.617Z,7.98
2018-03-28T12:25:37.603Z,7.89
2018-03-28T12:26:37.594Z,7.96
2018-03-28T12:27:37.583Z,8.04
2018-03-28T12:28:37.565Z,8.09
2018-03-28T12:29:37.814Z,8.14
2018-03-28T12:30:37.544Z,8.14
2018-03-28T12:31:37.530Z,8.14
2018-03-28T12:32:37.528Z,8.16
2018-03-28T12:33:37.510Z,8.19
2018-03-28T12:34:37.235Z,8.19
2018-03-28T12:35:37.741Z,8.28
2018-03-28T12:36:37.737Z,8.34
2018-03-28T12:37:37.464Z,8.19
2018-03-28T12:38:37.708Z,8.19
2018-03-28T12:39:37.700Z,8.19
2018-03-28T12:40:37.427Z,8.29
2018-03-28T12:41:37.415Z,8.31
2018-03-28T12:42:37.665Z,8.25
2018-03-28T12:43:37.421Z,8.22
2018-03-28T12:44:37.382Z,8.25
2018-03-28T12:45:37.633Z,8.32
2018-03-28T12:46:37.103Z,8.28
2018-03-28T12:47:37.348Z,8.31
2018-03-28T12:48:37.590Z,8.36
2018-03-28T12:49:37.126Z,8.44
2018-03-28T12:50:37.326Z,8.46
2018-03-28T12:51:37.329Z,8.6
2018-03-28T12:52:37.559Z,8.6
2018-03-28T12:53:37.544Z,8.6
2018-03-28T12:54:37.682Z,8.61
2018-03-28T12:55:37.625Z,8.58
2018-03-28T12:56:37.526Z,8.4
2018-03-28T12:57:36.997Z,8.31
2018-03-28T12:58:37.536Z,8.32
2018-03-28T12:59:37.468Z,8.19
2018-03-28T13:00:37.467Z,8.22
2018-03-28T13:01:37.191Z,8.22
2018-03-28T13:02:37.280Z,8.11
2018-03-28T13:03:36.907Z,8.14
2018-03-28T13:04:37.418Z,8.04
2018-03-28T13:05:37.145Z,7.96
2018-03-28T13:06:37.384Z,7.89
2018-03-28T13:07:37.378Z,7.78
2018-03-28T13:08:37.105Z,7.8
2018-03-28T13:09:37.356Z,7.77
2018-03-28T13:10:37.083Z,7.75
2018-03-28T13:11:37.331Z,7.7
2018-03-28T13:12:36.800Z,7.67
2018-03-28T13:13:37.301Z,7.71
2018-03-28T13:14:36.776Z,7.59
2018-03-28T13:15:37.022Z,7.67
2018-03-28T13:16:37.011Z,7.52
2018-03-28T13:17:37.257Z,7.58
2018-03-28T13:18:36.989Z,7.58
2018-03-28T13:19:37.237Z,7.74
2018-03-28T13:20:36.971Z,7.59
2018-03-28T13:21:37.212Z,7.77